Time;durP1;ratioP1;P1;durP2;ratioP2;P2;SDS_P1;SDS_P2;PMS_P1;PMS_P2;Temp;Humidity;BMP_temperature;BMP_pressure;BME280_temperature;BME280_humidity;BME280_pressure;Samples;Min_cycle;Max_cycle;Signal;HPM_P1;HPM_P2
2021/01/27 00:01:26;;;;;;;3.17;1.30;;;2.40;39.80;;;;;;4913847;29;20414;-80
2021/01/27 00:03:51;;;;;;;3.33;1.10;;;2.40;38.20;;;;;;4914365;29;20394;-80
2021/01/27 00:06:17;;;;;;;1.92;1.10;;;2.50;38.80;;;;;;4896567;29;20520;-80
2021/01/27 00:08:44;;;;;;;2.28;1.25;;;2.70;37.80;;;;;;4898808;29;20845;-79
2021/01/27 00:11:10;;;;;;;2.33;1.30;;;2.70;37.90;;;;;;4899018;29;20417;-80
2021/01/27 00:13:36;;;;;;;3.67;2.50;;;2.80;41.20;;;;;;4911946;29;20785;-80
2021/01/27 00:16:02;;;;;;;4.63;3.03;;;2.60;44.40;;;;;;4915742;29;20404;-81
2021/01/27 00:18:28;;;;;;;2.97;1.83;;;2.50;45.80;;;;;;4894479;29;20423;-81
2021/01/27 00:20:54;;;;;;;2.38;1.10;;;2.40;44.10;;;;;;4899048;29;20421;-81
2021/01/27 00:23:20;;;;;;;2.67;1.50;;;2.30;41.40;;;;;;4898906;29;20758;-81
2021/01/27 00:25:48;;;;;;;2.50;1.10;;;2.30;41.30;;;;;;4900578;29;20417;-81
2021/01/27 00:28:14;;;;;;;2.58;1.20;;;2.20;42.10;;;;;;4902789;29;20421;-80
2021/01/27 00:30:41;;;;;;;1.83;1.23;;;2.10;42.60;;;;;;4919522;29;20412;-80
2021/01/27 00:33:09;;;;;;;3.40;1.65;;;2.00;42.70;;;;;;4902427;29;20421;-81
2021/01/27 00:35:38;;;;;;;2.83;1.50;;;1.90;42.70;;;;;;4919499;29;20483;-81
2021/01/27 00:38:09;;;;;;;3.03;1.52;;;1.80;42.70;;;;;;4900354;29;20419;-80
2021/01/27 00:40:35;;;;;;;2.77;1.77;;;1.80;42.60;;;;;;4899130;29;20474;-81
2021/01/27 00:43:02;;;;;;;5.45;2.25;;;1.80;43.10;;;;;;4901007;29;20492;-80
2021/01/27 00:45:28;;;;;;;6.28;2.53;;;1.80;43.10;;;;;;4916835;29;20807;-80
2021/01/27 00:47:54;;;;;;;5.22;2.40;;;1.70;43.10;;;;;;4900792;29;20447;-80
2021/01/27 00:50:20;;;;;;;4.10;2.15;;;1.70;43.20;;;;;;4902148;29;20413;-81
2021/01/27 00:52:46;;;;;;;3.30;1.95;;;1.70;43.90;;;;;;4900918;29;20435;-80
2021/01/27 00:55:14;;;;;;;3.20;1.88;;;1.70;44.20;;;;;;4899032;29;20421;-81
2021/01/27 00:57:40;;;;;;;3.50;1.90;;;1.70;44.10;;;;;;4898558;29;20407;-79
2021/01/27 01:00:13;;;;;;;4.63;2.90;;;1.70;43.60;;;;;;4917052;29;20402;-80
2021/01/27 01:02:39;;;;;;;4.85;3.00;;;1.80;52.10;;;;;;4893553;29;20915;-81
2021/01/27 01:05:09;;;;;;;3.45;2.20;;;1.60;54.20;;;;;;4918874;29;20397;-80
2021/01/27 01:07:35;;;;;;;2.93;1.70;;;1.50;53.20;;;;;;4898756;29;20514;-79
2021/01/27 01:10:02;;;;;;;2.50;1.40;;;1.30;49.70;;;;;;4899582;29;20413;-80
2021/01/27 01:12:28;;;;;;;3.55;1.58;;;1.30;47.60;;;;;;4914910;29;20417;-80
2021/01/27 01:14:54;;;;;;;2.13;1.20;;;1.40;45.60;;;;;;4901448;29;20465;-80
2021/01/27 01:17:20;;;;;;;2.23;1.13;;;1.50;45.00;;;;;;4901817;29;20453;-80
2021/01/27 01:19:46;;;;;;;2.15;1.00;;;1.50;44.30;;;;;;4918496;29;20896;-80
2021/01/27 01:22:12;;;;;;;1.65;1.00;;;1.70;42.80;;;;;;4903151;29;20476;-80
2021/01/27 01:24:38;;;;;;;1.77;1.03;;;1.90;41.70;;;;;;4901644;29;20416;-80
2021/01/27 01:27:05;;;;;;;1.92;1.10;;;2.00;41.80;;;;;;4896199;29;20421;-80
2021/01/27 01:29:31;;;;;;;2.45;1.30;;;2.10;41.50;;;;;;4900574;29;20420;-80
2021/01/27 01:31:57;;;;;;;2.25;1.10;;;2.10;41.10;;;;;;4900814;29;20419;-80
2021/01/27 01:34:23;;;;;;;2.35;1.15;;;2.10;41.70;;;;;;4896021;29;20422;-80
2021/01/27 01:36:49;;;;;;;2.55;1.20;;;2.20;41.00;;;;;;4913707;29;20412;-80
2021/01/27 01:39:15;;;;;;;2.00;1.10;;;2.30;41.00;;;;;;4918022;29;20401;-80
2021/01/27 01:41:41;;;;;;;3.17;1.15;;;2.20;41.30;;;;;;4903466;29;20467;-80
2021/01/27 01:44:07;;;;;;;1.63;1.00;;;2.10;41.40;;;;;;4901228;29;20987;-80
2021/01/27 01:46:33;;;;;;;2.30;1.00;;;2.20;42.00;;;;;;4898934;29;20439;-80
2021/01/27 01:49:00;;;;;;;1.58;0.80;;;2.10;41.40;;;;;;4918434;29;20401;-80
2021/01/27 01:51:31;;;;;;;1.73;1.00;;;2.20;40.80;;;;;;4913661;29;20401;-80
2021/01/27 01:53:59;;;;;;;2.25;1.08;;;2.30;40.50;;;;;;4896931;29;20860;-80
2021/01/27 01:56:29;;;;;;;2.20;1.13;;;2.40;40.30;;;;;;4917484;29;20415;-80
2021/01/27 01:58:58;;;;;;;1.87;0.90;;;2.40;40.70;;;;;;4899611;29;20487;-81
2021/01/27 02:01:24;;;;;;;5.20;1.88;;;2.40;41.20;;;;;;4899310;29;20422;-76
2021/01/27 02:03:51;;;;;;;1.93;1.10;;;2.40;41.50;;;;;;4956420;23;20530;-79
2021/01/27 02:06:18;;;;;;;2.35;1.05;;;2.30;41.50;;;;;;4954210;28;20418;-80
2021/01/27 02:08:48;;;;;;;1.58;0.90;;;2.20;42.20;;;;;;4949372;28;20414;-80
2021/01/27 02:11:17;;;;;;;1.85;1.00;;;2.10;42.50;;;;;;4954489;28;20935;-81
2021/01/27 02:14:00;;;;;;;1.45;1.02;;;2.10;42.70;;;;;;4956105;28;20422;-80
2021/01/27 02:16:36;;;;;;;2.00;0.80;;;2.00;43.00;;;;;;4954753;28;20414;-80
2021/01/27 02:19:46;;;;;;;1.67;0.90;;;1.80;43.60;;;;;;4955505;28;20402;-80
2021/01/27 02:22:44;;;;;;;2.15;0.88;;;1.70;43.40;;;;;;4956039;28;20881;-80
2021/01/27 02:25:47;;;;;;;2.80;1.20;;;1.90;42.40;;;;;;4923389;28;20418;-81
2021/01/27 02:28:32;;;;;;;2.65;1.30;;;1.80;43.20;;;;;;4959022;28;20914;-80
2021/01/27 02:31:11;;;;;;;2.20;1.30;;;1.80;42.70;;;;;;4955217;28;20398;-80
2021/01/27 02:34:06;;;;;;;1.55;0.90;;;1.90;42.40;;;;;;4955557;28;20417;-80
2021/01/27 02:36:36;;;;;;;1.90;1.00;;;1.90;42.60;;;;;;4949483;28;20505;-80
2021/01/27 02:39:10;;;;;;;2.00;0.90;;;1.90;42.50;;;;;;4954340;28;20413;-80
2021/01/27 02:41:43;;;;;;;2.00;0.80;;;2.00;42.40;;;;;;4954411;28;20948;-80
2021/01/27 02:44:15;;;;;;;1.80;0.90;;;1.90;43.50;;;;;;4954466;28;20414;-80
2021/01/27 02:46:43;;;;;;;1.90;0.88;;;1.90;43.00;;;;;;4954136;28;20930;-80
2021/01/27 02:49:13;;;;;;;2.25;0.93;;;1.80;43.50;;;;;;4953458;28;20984;-80
2021/01/27 02:51:46;;;;;;;1.70;1.00;;;1.80;43.30;;;;;;4954104;28;20414;-80
2021/01/27 02:54:17;;;;;;;2.75;1.02;;;1.70;44.20;;;;;;4954242;28;20917;-80
2021/01/27 02:56:48;;;;;;;1.90;0.98;;;1.60;44.00;;;;;;4954141;28;20409;-80
2021/01/27 02:59:20;;;;;;;2.15;1.10;;;1.60;43.70;;;;;;4953721;28;20757;-80
2021/01/27 03:01:53;;;;;;;2.42;1.20;;;1.70;43.90;;;;;;4953300;28;20474;-80
2021/01/27 03:04:25;;;;;;;1.70;0.95;;;1.70;43.80;;;;;;4930134;29;20490;-80
2021/01/27 03:06:54;;;;;;;2.42;1.00;;;1.70;44.40;;;;;;4937659;29;20411;-81
2021/01/27 03:09:25;;;;;;;2.20;1.10;;;1.70;44.20;;;;;;4934730;29;20418;-81
2021/01/27 03:11:51;;;;;;;2.10;0.95;;;1.60;44.60;;;;;;4934161;29;20412;-80
2021/01/27 03:14:17;;;;;;;2.33;1.10;;;1.60;44.20;;;;;;4939880;29;20517;-80
2021/01/27 03:16:46;;;;;;;1.77;0.98;;;1.60;44.80;;;;;;4934754;29;20446;-80
2021/01/27 03:19:16;;;;;;;2.30;1.10;;;1.70;44.20;;;;;;4935397;29;20502;-80
2021/01/27 03:21:46;;;;;;;2.25;1.10;;;1.60;44.70;;;;;;4934526;29;20420;-79
2021/01/27 03:24:19;;;;;;;3.55;1.33;;;1.50;45.00;;;;;;4937751;29;20412;-80
2021/01/27 03:26:54;;;;;;;2.03;1.23;;;1.40;45.30;;;;;;4935638;29;20755;-81
2021/01/27 03:29:28;;;;;;;3.13;1.30;;;1.50;45.10;;;;;;4936209;29;20406;-81
2021/01/27 03:31:58;;;;;;;2.50;1.30;;;1.50;45.20;;;;;;4934397;29;20423;-80
2021/01/27 03:34:29;;;;;;;2.22;1.30;;;1.40;45.70;;;;;;4935112;29;20419;-81
2021/01/27 03:37:04;;;;;;;2.92;1.48;;;1.30;46.20;;;;;;4935566;29;20410;-81
2021/01/27 03:39:34;;;;;;;3.85;2.00;;;1.30;46.90;;;;;;4933754;29;20411;-81
2021/01/27 03:42:06;;;;;;;4.88;2.28;;;1.20;53.50;;;;;;4934581;29;20418;-81
2021/01/27 03:44:34;;;;;;;4.10;2.05;;;;;;;;;;4935297;29;20891;-81
2021/01/27 03:47:02;;;;;;;4.75;2.05;;;;;;;;;;4935324;29;20411;-79
2021/01/27 03:49:31;;;;;;;4.80;2.28;;;;;;;;;;4927932;29;20495;-81
2021/01/27 03:52:01;;;;;;;3.42;1.70;;;0.80;57.10;;;;;;4935563;29;20416;-81
2021/01/27 03:54:29;;;;;;;3.42;1.83;;;;;;;;;;4931808;29;20476;-82
2021/01/27 03:57:00;;;;;;;3.17;1.92;;;;;;;;;;4933547;29;20415;-82
2021/01/27 03:59:26;;;;;;;2.90;1.65;;;;;;;;;;4935397;29;20498;-82
2021/01/27 04:01:53;;;;;;;3.30;1.98;;;;;;;;;;4937902;29;20408;-82
2021/01/27 04:04:20;;;;;;;3.33;1.95;;;;;;;;;;4939495;29;20400;-82
2021/01/27 04:06:46;;;;;;;3.55;1.85;;;;;;;;;;4937579;29;20407;-81
2021/01/27 04:09:12;;;;;;;2.60;1.80;;;;;;;;;;4937743;29;20403;-80
2021/01/27 04:11:38;;;;;;;3.17;1.97;;;;;;;;;;4938157;29;20429;-81
2021/01/27 04:14:06;;;;;;;3.25;1.70;;;;;;;;;;4935862;29;20429;-82
2021/01/27 04:16:32;;;;;;;3.22;1.90;;;;;;;;;;4939032;29;20422;-83
2021/01/27 04:18:59;;;;;;;4.70;1.80;;;;;;;;;;4938589;29;20410;-81
2021/01/27 04:21:25;;;;;;;3.70;1.80;;;;;;;;;;4937783;29;20500;-82
2021/01/27 04:23:52;;;;;;;3.08;1.35;;;-0.60;64.30;;;;;;4931308;29;20415;-82
2021/01/27 04:26:18;;;;;;;3.00;1.58;;;;;;;;;;4938678;29;20751;-81
2021/01/27 04:28:45;;;;;;;3.47;1.58;;;;;;;;;;4937746;29;20767;-81
2021/01/27 04:31:12;;;;;;;2.72;1.45;;;;;;;;;;4932371;29;20423;-81
2021/01/27 04:33:38;;;;;;;2.88;1.60;;;;;;;;;;4938817;29;20427;-81
2021/01/27 04:36:05;;;;;;;2.65;1.70;;;;;;;;;;4937249;29;20767;-81
2021/01/27 04:38:30;;;;;;;2.70;1.70;;;-0.80;64.70;;;;;;4938407;29;20414;-81
2021/01/27 04:40:58;;;;;;;2.67;1.80;;;-1.20;66.70;;;;;;4937442;29;20415;-82
2021/01/27 04:43:29;;;;;;;3.60;1.98;;;-1.20;66.50;;;;;;4938406;29;20403;-82
2021/01/27 04:46:02;;;;;;;3.33;1.90;;;-1.30;67.20;;;;;;4936568;29;20411;-81
2021/01/27 04:48:42;;;;;;;3.60;2.10;;;-1.30;67.70;;;;;;4937005;29;20403;-81
2021/01/27 04:51:13;;;;;;;1.70;1.38;;;-1.20;68.30;;;;;;4934704;29;20455;-81
2021/01/27 04:53:49;;;;;;;2.42;1.20;;;-1.20;66.10;;;;;;4938304;29;20426;-80
2021/01/27 04:56:54;;;;;;;1.73;1.10;;;-1.10;64.90;;;;;;4936933;29;20403;-80
2021/01/27 04:59:30;;;;;;;3.20;1.60;;;-1.10;61.40;;;;;;4864347;29;20447;-81
2021/01/27 05:02:17;;;;;;;2.13;1.38;;;-0.90;58.80;;;;;;4879518;29;20420;-81
2021/01/27 05:04:59;;;;;;;2.33;1.30;;;-0.60;57.80;;;;;;4913204;29;20439;-81
2021/01/27 05:07:30;;;;;;;2.25;1.30;;;-0.50;57.30;;;;;;4933889;29;20413;-81
2021/01/27 05:09:59;;;;;;;1.88;1.10;;;-0.50;57.90;;;;;;4934875;29;20744;-81
2021/01/27 05:12:34;;;;;;;2.97;1.30;;;-0.60;61.60;;;;;;4935280;29;20407;-81
2021/01/27 05:15:01;;;;;;;3.38;1.52;;;-0.70;63.80;;;;;;4929542;29;20425;-82
2021/01/27 05:17:26;;;;;;;2.45;1.30;;;-0.70;64.60;;;;;;4937693;29;20391;-80
2021/01/27 05:19:53;;;;;;;2.92;1.75;;;-0.70;64.60;;;;;;4936819;29;20958;-81
2021/01/27 05:22:19;;;;;;;2.85;1.52;;;-0.70;65.80;;;;;;4932948;29;20457;-80
2021/01/27 05:24:46;;;;;;;2.92;1.50;;;-0.80;68.60;;;;;;4934390;29;20400;-81
2021/01/27 05:27:18;;;;;;;2.70;1.73;;;-0.90;69.80;;;;;;4935706;29;20740;-80
2021/01/27 05:29:51;;;;;;;2.55;1.80;;;-1.10;71.20;;;;;;4948574;28;20423;-80
2021/01/27 05:32:18;;;;;;;2.20;1.50;;;-1.20;71.90;;;;;;4937197;29;20400;-80
2021/01/27 05:34:46;;;;;;;2.90;1.77;;;-1.30;72.90;;;;;;4936451;29;20419;-81
2021/01/27 05:37:15;;;;;;;2.42;1.55;;;;;;;;;;4937129;29;20424;-79
2021/01/27 05:39:42;;;;;;;2.67;1.70;;;;;;;;;;4935247;29;20416;-80
2021/01/27 05:42:14;;;;;;;2.97;1.58;;;;;;;;;;4933889;29;20416;-81
2021/01/27 05:44:40;;;;;;;2.28;1.70;;;;;;;;;;4936020;29;20895;-81
2021/01/27 05:47:19;;;;;;;3.28;1.63;;;;;;;;;;4935795;29;20845;-81
2021/01/27 05:49:46;;;;;;;3.17;1.97;;;;;;;;;;4937001;29;20925;-81
2021/01/27 05:52:13;;;;;;;3.50;1.98;;;;;;;;;;4934470;29;20415;-82
2021/01/27 05:54:40;;;;;;;3.13;2.28;;;;;;;;;;4935749;29;20503;-80
2021/01/27 05:57:10;;;;;;;2.43;1.50;;;;;;;;;;4934532;29;20471;-82
2021/01/27 05:59:36;;;;;;;2.83;1.50;;;-1.30;72.50;;;;;;4934778;29;20461;-82
2021/01/27 06:02:05;;;;;;;2.40;1.75;;;-1.20;76.90;;;;;;4935019;29;20427;-80
2021/01/27 06:04:32;;;;;;;3.90;2.53;;;-1.20;78.30;;;;;;4932418;29;21008;-79
2021/01/27 06:07:01;;;;;;;3.10;2.05;;;-1.30;80.00;;;;;;4932432;29;20462;-80
2021/01/27 06:09:41;;;;;;;4.18;2.42;;;-1.30;80.10;;;;;;4930208;29;20416;-81
2021/01/27 06:12:12;;;;;;;3.75;2.00;;;-1.40;80.90;;;;;;4933415;29;20420;-81
2021/01/27 06:14:39;;;;;;;4.00;2.22;;;-1.40;80.40;;;;;;4935506;29;20443;-81
2021/01/27 06:17:24;;;;;;;3.88;2.25;;;-1.40;82.00;;;;;;4935089;29;20412;-81
2021/01/27 06:20:07;;;;;;;3.45;2.10;;;;;;;;;;4933769;29;20526;-81
2021/01/27 06:22:46;;;;;;;3.28;2.03;;;;;;;;;;4936554;29;20872;-80
2021/01/27 06:25:27;;;;;;;3.80;2.40;;;;;;;;;;4935054;29;20408;-81
2021/01/27 06:28:03;;;;;;;4.38;2.40;;;;;;;;;;4932446;29;20413;-79
2021/01/27 06:30:43;;;;;;;4.78;2.80;;;;;;;;;;4932805;29;20474;-80
2021/01/27 06:33:28;;;;;;;4.13;2.50;;;;;;;;;;4931150;29;20535;-80
2021/01/27 06:36:00;;;;;;;5.90;3.90;;;;;;;;;;4937516;29;20403;-81
2021/01/27 06:38:34;;;;;;;4.75;3.33;;;;;;;;;;4934898;29;20488;-80
2021/01/27 06:41:08;;;;;;;4.23;3.00;;;;;;;;;;4935522;29;20419;-80
2021/01/27 06:44:15;;;;;;;5.22;2.95;;;-1.50;84.70;;;;;;4932010;29;20417;-81
2021/01/27 06:47:04;;;;;;;4.30;2.90;;;-1.70;93.80;;;;;;4931815;29;20905;-80
2021/01/27 06:50:07;;;;;;;4.43;3.10;;;-1.70;94.70;;;;;;4928949;29;20422;-80
2021/01/27 06:53:08;;;;;;;5.23;3.10;;;-1.80;91.30;;;;;;4934699;29;20486;-81
2021/01/27 06:55:37;;;;;;;3.55;2.47;;;;;;;;;;4932575;29;20937;-80
2021/01/27 06:58:21;;;;;;;6.17;2.47;;;-1.90;96.60;;;;;;4935786;29;20415;-81
2021/01/27 07:01:01;;;;;;;4.53;2.22;;;-1.90;96.50;;;;;;4935926;29;20406;-78
2021/01/27 07:03:53;;;;;;;3.80;2.00;;;-2.10;92.10;;;;;;4935089;29;20459;-80
2021/01/27 07:07:01;;;;;;;3.90;2.30;;;-2.20;92.10;;;;;;4935791;29;20391;-81
2021/01/27 07:09:47;;;;;;;3.03;2.00;;;-2.10;93.20;;;;;;4931719;29;20494;-81
2021/01/27 07:12:22;;;;;;;4.40;2.00;;;-2.20;92.70;;;;;;4931700;29;20527;-80
2021/01/27 07:15:13;;;;;;;3.08;2.05;;;-2.20;93.10;;;;;;4929790;29;20423;-81
2021/01/27 07:18:10;;;;;;;3.45;2.15;;;-2.20;93.00;;;;;;4934861;29;20419;-80
2021/01/27 07:20:41;;;;;;;3.70;2.38;;;-2.20;93.30;;;;;;4926407;29;20423;-80
2021/01/27 07:23:14;;;;;;;5.32;3.05;;;-2.20;92.80;;;;;;4934695;29;20768;-80
2021/01/27 07:26:01;;;;;;;4.60;3.17;;;-2.20;91.80;;;;;;4935461;29;20400;-81
2021/01/27 07:28:33;;;;;;;7.15;3.83;;;-2.20;92.00;;;;;;4935890;29;20400;-81
2021/01/27 07:31:09;;;;;;;11.68;5.07;;;-2.20;93.00;;;;;;4934532;29;20408;-80
2021/01/27 07:33:41;;;;;;;8.25;4.97;;;-2.40;94.60;;;;;;4934221;29;20491;-80
2021/01/27 07:36:25;;;;;;;13.02;6.80;;;-2.30;94.30;;;;;;4932536;29;20419;-80
2021/01/27 07:38:57;;;;;;;14.10;8.68;;;-2.30;94.80;;;;;;4935451;29;20406;-81
2021/01/27 07:41:32;;;;;;;8.68;5.60;;;-2.20;94.10;;;;;;4935181;29;20418;-81
2021/01/27 07:44:03;;;;;;;10.75;5.47;;;-2.00;94.20;;;;;;4934467;29;20412;-81
2021/01/27 07:46:37;;;;;;;12.02;7.25;;;-1.80;94.40;;;;;;4932927;29;20575;-81
2021/01/27 07:49:04;;;;;;;12.00;7.88;;;-1.70;94.00;;;;;;4935213;29;20462;-81
2021/01/27 07:51:48;;;;;;;10.38;7.15;;;-1.50;93.40;;;;;;4934385;29;20407;-81
2021/01/27 07:54:16;;;;;;;14.18;8.80;;;;;;;;;;4934120;29;20424;-80
2021/01/27 07:56:49;;;;;;;14.50;8.30;;;;;;;;;;4934027;29;20424;-79
2021/01/27 07:59:19;;;;;;;16.38;9.05;;;;;;;;;;4933794;29;20463;-80
2021/01/27 08:01:50;;;;;;;7.57;5.32;;;0.00;89.50;;;;;;4934964;29;20399;-80
2021/01/27 08:04:22;;;;;;;7.15;4.03;;;;;;;;;;4933020;29;20416;-80
2021/01/27 08:06:52;;;;;;;6.47;4.13;;;0.50;85.30;;;;;;4933085;29;20399;-81
2021/01/27 08:09:31;;;;;;;6.03;3.95;;;0.40;83.30;;;;;;4935153;29;20406;-80
2021/01/27 08:12:17;;;;;;;11.20;5.53;;;0.40;85.10;;;;;;4932038;29;20438;-80
2021/01/27 08:15:06;;;;;;;12.98;8.57;;;0.40;91.00;;;;;;4917993;29;20417;-81
2021/01/27 08:18:13;;;;;;;17.08;10.77;;;1.10;90.50;;;;;;4934414;29;20914;-80
2021/01/27 08:20:42;;;;;;;25.10;20.13;;;0.60;87.30;;;;;;4932526;29;20839;-81
2021/01/27 08:23:10;;;;;;;24.83;18.90;;;0.70;87.00;;;;;;4934008;29;20408;-81
2021/01/27 08:25:52;;;;;;;18.58;14.48;;;0.60;79.90;;;;;;4933548;29;20403;-81
2021/01/27 08:28:26;;;;;;;20.33;13.73;;;1.00;78.40;;;;;;4934028;29;20927;-81
2021/01/27 08:31:18;;;;;;;15.05;9.65;;;1.10;76.80;;;;;;4924750;29;20416;-81
2021/01/27 08:33:55;;;;;;;8.68;6.05;;;1.30;79.80;;;;;;4920581;29;20417;-80
2021/01/27 08:36:23;;;;;;;7.72;5.30;;;;;;;;;;4925801;29;20421;-81
2021/01/27 08:39:06;;;;;;;8.90;5.65;;;1.40;84.40;;;;;;4935017;29;20403;-81
2021/01/27 08:41:39;;;;;;;12.05;8.00;;;1.60;86.40;;;;;;4934628;28;20408;-80
2021/01/27 08:44:06;;;;;;;10.15;6.70;;;1.80;85.40;;;;;;4915248;29;20496;-80
2021/01/27 08:46:41;;;;;;;10.88;6.47;;;1.90;84.60;;;;;;4933617;29;20404;-80
2021/01/27 08:49:09;;;;;;;9.30;6.15;;;2.00;82.40;;;;;;4937433;29;20410;-80
2021/01/27 08:51:48;;;;;;;6.25;4.30;;;2.10;81.60;;;;;;4936963;29;20903;-79
2021/01/27 08:54:38;;;;;;;6.57;4.85;;;;;;;;;;4937383;29;20420;-81
2021/01/27 08:57:16;;;;;;;6.25;4.45;;;;;;;;;;4934460;29;20407;-79
2021/01/27 08:59:54;;;;;;;6.75;4.20;;;2.30;81.50;;;;;;4936567;29;20915;-80
2021/01/27 09:02:40;;;;;;;6.57;4.35;;;2.80;78.30;;;;;;4936897;29;20427;-80
2021/01/27 09:05:13;;;;;;;6.40;4.25;;;2.80;74.90;;;;;;4936027;29;20559;-80
2021/01/27 09:07:48;;;;;;;10.10;6.18;;;2.90;74.20;;;;;;4935369;29;20532;-80
2021/01/27 09:10:14;;;;;;;8.85;5.90;;;2.90;72.60;;;;;;4934891;29;20409;-80
2021/01/27 09:12:40;;;;;;;8.53;6.27;;;3.00;72.30;;;;;;4937950;29;20500;-80
2021/01/27 09:15:07;;;;;;;13.73;7.63;;;3.10;72.10;;;;;;4934927;29;20423;-82
2021/01/27 09:17:35;;;;;;;13.13;8.48;;;3.20;71.80;;;;;;4936544;29;20407;-80
2021/01/27 09:20:01;;;;;;;15.73;10.35;;;3.40;72.10;;;;;;4936880;29;20436;-81
2021/01/27 09:22:27;;;;;;;7.57;4.00;;;3.60;71.10;;;;;;4936338;29;20454;-81
2021/01/27 09:24:56;;;;;;;4.97;3.47;;;4.00;70.50;;;;;;4936996;29;20483;-81
2021/01/27 09:27:26;;;;;;;4.47;3.28;;;4.20;70.60;;;;;;4936278;29;20466;-80
2021/01/27 09:29:59;;;;;;;6.60;3.53;;;4.30;68.90;;;;;;4936694;29;20480;-80
2021/01/27 09:32:26;;;;;;;6.38;2.92;;;4.50;66.70;;;;;;4934968;29;20980;-80
2021/01/27 09:34:52;;;;;;;4.88;3.58;;;4.70;65.30;;;;;;4936551;29;20439;-80
2021/01/27 09:37:20;;;;;;;5.97;3.42;;;4.80;64.30;;;;;;4934616;29;20439;-77
2021/01/27 09:39:51;;;;;;;4.45;2.97;;;4.80;61.90;;;;;;4937598;29;20470;-80
2021/01/27 09:42:21;;;;;;;4.88;3.08;;;4.90;61.50;;;;;;4937914;29;20450;-81
2021/01/27 09:44:53;;;;;;;3.80;2.88;;;4.90;59.80;;;;;;4937802;29;20476;-81
2021/01/27 09:47:19;;;;;;;4.18;3.05;;;4.90;60.70;;;;;;4935616;29;20399;-79
2021/01/27 09:49:48;;;;;;;3.33;2.45;;;5.00;59.30;;;;;;4935995;29;20411;-81
2021/01/27 09:52:16;;;;;;;5.05;2.53;;;5.20;58.00;;;;;;4936196;29;20453;-81
2021/01/27 09:54:45;;;;;;;4.65;2.60;;;5.40;56.90;;;;;;4944284;28;20430;-81
2021/01/27 09:57:13;;;;;;;3.25;2.17;;;5.60;56.10;;;;;;4935653;29;20467;-80
2021/01/27 09:59:41;;;;;;;4.68;2.42;;;5.50;55.90;;;;;;4935655;29;20463;-80
2021/01/27 10:02:10;;;;;;;4.63;2.70;;;;;;;;;;4935760;29;20483;-82
2021/01/27 10:04:37;;;;;;;3.50;2.13;;;;;;;;;;4932977;29;20408;-80
2021/01/27 10:07:09;;;;;;;4.60;2.23;;;5.60;57.10;;;;;;4935809;29;20552;-80
2021/01/27 10:09:39;;;;;;;4.35;1.63;;;;;;;;;;4935520;29;20415;-81
2021/01/27 10:12:12;;;;;;;1.90;1.50;;;6.20;63.20;;;;;;4932886;29;20819;-82
2021/01/27 10:14:41;;;;;;;2.53;1.60;;;6.40;64.70;;;;;;4920303;29;20480;-80
2021/01/27 10:17:09;;;;;;;2.85;1.83;;;6.60;64.00;;;;;;4945016;28;20990;-81
2021/01/27 10:19:46;;;;;;;3.45;1.58;;;6.70;63.00;;;;;;4932463;29;20413;-80
2021/01/27 10:22:12;;;;;;;2.45;1.80;;;6.60;62.70;;;;;;4930028;29;20417;-80
2021/01/27 10:24:49;;;;;;;2.90;1.85;;;6.60;65.30;;;;;;4935433;29;20423;-81
2021/01/27 10:27:30;;;;;;;4.43;2.40;;;7.00;66.40;;;;;;4934986;29;20407;-82
2021/01/27 10:29:58;;;;;;;4.97;2.60;;;7.10;67.60;;;;;;4936254;29;20412;-79
2021/01/27 10:32:38;;;;;;;3.97;2.33;;;7.10;70.30;;;;;;4933509;29;20422;-81
2021/01/27 10:35:30;;;;;;;3.60;2.23;;;7.40;68.20;;;;;;4938203;29;20420;-80
2021/01/27 10:38:15;;;;;;;5.07;2.03;;;7.60;69.60;;;;;;4935027;29;20772;-81
2021/01/27 10:41:01;;;;;;;3.58;1.60;;;7.70;68.00;;;;;;4934359;29;20423;-81
2021/01/27 10:43:28;;;;;;;2.40;1.52;;;7.90;66.30;;;;;;4935372;29;20412;-81
2021/01/27 10:45:56;;;;;;;2.50;1.40;;;7.80;67.70;;;;;;4934715;29;20416;-80
2021/01/27 10:48:26;;;;;;;2.45;1.55;;;8.10;63.50;;;;;;4934878;29;20941;-81
2021/01/27 10:50:59;;;;;;;2.67;1.47;;;8.30;63.20;;;;;;4930094;29;20492;-81
2021/01/27 10:53:25;;;;;;;3.37;1.50;;;8.30;66.70;;;;;;4946078;28;20907;-81
2021/01/27 10:55:54;;;;;;;1.92;1.08;;;8.30;66.50;;;;;;4933765;29;20519;-81
2021/01/27 10:58:21;;;;;;;3.00;1.30;;;8.10;63.90;;;;;;4934579;29;20418;-81
2021/01/27 11:00:47;;;;;;;2.00;1.15;;;8.40;59.00;;;;;;4936091;29;20415;-81
2021/01/27 11:03:14;;;;;;;2.03;1.20;;;8.50;57.90;;;;;;4931883;29;20429;-81
2021/01/27 11:05:41;;;;;;;2.63;1.38;;;8.50;60.50;;;;;;4935874;29;20424;-80
2021/01/27 11:08:13;;;;;;;1.70;1.00;;;8.90;55.60;;;;;;4934109;29;20400;-81
2021/01/27 11:10:39;;;;;;;1.70;0.73;;;8.80;56.00;;;;;;4932654;29;20427;-80
2021/01/27 11:13:05;;;;;;;2.47;1.30;;;8.90;54.50;;;;;;4934522;29;20416;-79
2021/01/27 11:15:31;;;;;;;2.10;1.30;;;8.90;55.10;;;;;;4934087;29;20777;-80
2021/01/27 11:17:57;;;;;;;3.03;1.63;;;8.90;56.90;;;;;;4934573;29;20442;-79
2021/01/27 11:20:25;;;;;;;3.38;1.50;;;9.10;57.50;;;;;;4933864;29;20444;-82
2021/01/27 11:22:52;;;;;;;3.47;2.00;;;9.10;59.40;;;;;;4931351;29;20436;-80
2021/01/27 11:25:21;;;;;;;2.80;1.63;;;8.90;59.80;;;;;;4934371;29;20478;-81
2021/01/27 11:27:47;;;;;;;3.08;1.92;;;9.00;58.90;;;;;;4931292;29;21000;-79
2021/01/27 11:30:17;;;;;;;3.10;1.90;;;9.00;59.10;;;;;;4934526;29;20407;-80
2021/01/27 11:32:43;;;;;;;2.80;1.63;;;9.00;62.30;;;;;;4934126;29;20411;-80
2021/01/27 11:35:10;;;;;;;2.90;1.70;;;8.90;63.30;;;;;;4934397;29;20518;-81
2021/01/27 11:37:36;;;;;;;2.72;1.83;;;8.80;61.00;;;;;;4930971;29;20408;-80
2021/01/27 11:40:04;;;;;;;3.28;1.92;;;8.90;62.70;;;;;;4931985;29;20419;-80
2021/01/27 11:42:30;;;;;;;3.42;1.70;;;9.00;61.60;;;;;;4933957;29;20827;-81
2021/01/27 11:44:56;;;;;;;2.30;1.60;;;9.10;61.60;;;;;;4928751;29;20441;-80
2021/01/27 11:47:22;;;;;;;2.23;1.77;;;9.10;60.70;;;;;;4934181;29;20414;-80
2021/01/27 11:49:49;;;;;;;2.42;1.60;;;9.10;60.90;;;;;;4933051;29;20462;-82
2021/01/27 11:52:15;;;;;;;2.97;1.50;;;9.00;60.20;;;;;;4937163;29;20409;-81
2021/01/27 11:54:42;;;;;;;3.97;1.85;;;8.90;60.20;;;;;;4933465;29;20423;-81
2021/01/27 11:57:09;;;;;;;2.30;1.40;;;9.00;59.70;;;;;;4933725;29;20411;-82
2021/01/27 11:59:35;;;;;;;2.70;1.77;;;9.00;59.00;;;;;;4929081;29;20451;-81
2021/01/27 12:02:02;;;;;;;3.05;1.70;;;9.00;60.70;;;;;;4933989;29;20439;-81
2021/01/27 12:04:28;;;;;;;3.50;1.70;;;8.70;60.40;;;;;;4934053;29;20470;-81
2021/01/27 12:06:54;;;;;;;3.33;1.53;;;8.60;59.90;;;;;;4931052;29;20408;-81
2021/01/27 12:09:20;;;;;;;3.28;1.60;;;8.60;59.50;;;;;;4933006;29;20446;-80
2021/01/27 12:11:47;;;;;;;3.20;1.90;;;8.70;58.60;;;;;;4930818;29;20407;-80
2021/01/27 12:14:13;;;;;;;2.73;1.60;;;8.60;58.60;;;;;;4930423;29;20423;-80
2021/01/27 12:16:39;;;;;;;2.60;1.60;;;8.80;58.70;;;;;;4929654;29;20408;-80
2021/01/27 12:19:05;;;;;;;2.75;1.73;;;8.70;58.20;;;;;;4933241;29;20418;-81
2021/01/27 12:21:31;;;;;;;3.70;1.97;;;8.90;57.80;;;;;;4931908;29;20411;-80
2021/01/27 12:23:57;;;;;;;3.45;2.40;;;8.90;59.90;;;;;;4932998;29;20423;-81
2021/01/27 12:26:22;;;;;;;4.35;2.05;;;8.90;60.00;;;;;;4934034;29;20408;-81
2021/01/27 12:28:49;;;;;;;2.87;2.07;;;8.90;60.40;;;;;;4932473;29;20414;-78
2021/01/27 12:31:15;;;;;;;3.97;2.27;;;8.90;60.60;;;;;;4936239;29;20495;-81
2021/01/27 12:33:41;;;;;;;3.35;2.03;;;8.70;59.30;;;;;;4933651;29;20417;-81
2021/01/27 12:36:07;;;;;;;3.65;2.00;;;8.70;59.90;;;;;;4932324;29;20471;-81
2021/01/27 12:38:33;;;;;;;3.72;2.20;;;8.60;60.60;;;;;;4932047;29;20780;-81
2021/01/27 12:41:00;;;;;;;2.85;2.10;;;8.60;59.90;;;;;;4934318;29;20403;-81
2021/01/27 12:43:27;;;;;;;2.83;1.90;;;8.70;60.80;;;;;;4934183;29;20418;-81
2021/01/27 12:45:54;;;;;;;3.83;2.30;;;8.70;60.50;;;;;;4932981;29;20396;-81
2021/01/27 12:48:20;;;;;;;2.28;2.05;;;8.60;60.30;;;;;;4934899;29;20840;-80
2021/01/27 12:50:46;;;;;;;4.10;2.60;;;8.40;48.30;;;;;;4933098;29;20439;-80
2021/01/27 12:53:12;;;;;;;4.13;3.17;;;7.90;45.20;;;;;;4931612;29;20473;-81
2021/01/27 12:55:38;;;;;;;5.43;4.13;;;7.50;47.40;;;;;;4935054;29;20423;-80
2021/01/27 12:58:04;;;;;;;4.97;3.83;;;7.50;48.60;;;;;;4933846;29;20415;-81
2021/01/27 13:00:30;;;;;;;5.13;4.03;;;7.60;48.70;;;;;;4931832;29;20415;-81
2021/01/27 13:02:57;;;;;;;6.25;3.90;;;7.40;45.60;;;;;;4930578;29;20440;-81
2021/01/27 13:05:25;;;;;;;6.57;4.33;;;7.20;46.60;;;;;;4936665;29;20922;-81
2021/01/27 13:07:51;;;;;;;4.20;3.72;;;7.30;47.30;;;;;;4936610;29;20777;-81
2021/01/27 13:10:18;;;;;;;3.75;3.35;;;7.10;43.70;;;;;;4934664;29;20415;-81
2021/01/27 13:12:45;;;;;;;4.18;3.33;;;7.10;44.40;;;;;;4934864;29;20408;-81
2021/01/27 13:15:14;;;;;;;4.88;3.50;;;7.00;43.80;;;;;;4936680;29;20427;-81
2021/01/27 13:17:40;;;;;;;6.55;3.90;;;6.90;44.10;;;;;;4949635;28;20457;-81
2021/01/27 13:20:09;;;;;;;9.65;5.95;;;6.90;44.60;;;;;;4935553;29;20408;-81
2021/01/27 13:22:35;;;;;;;97.90;47.10;;;6.90;43.90;;;;;;4935940;29;20942;-80
2021/01/27 13:25:01;;;;;;;47.42;26.92;;;6.90;46.00;;;;;;4936384;29;20407;-82
2021/01/27 13:27:27;;;;;;;9.10;6.10;;;6.90;48.20;;;;;;4939260;29;20398;-81
2021/01/27 13:29:53;;;;;;;8.95;5.80;;;6.90;48.20;;;;;;4935840;29;20423;-80